Terminal Aerodrome Forecast
Issued by NWS Mt. Holly, NJ

Home | Current Version | Previous Version | Text Only | Print | Product List | Glossary On
Versions: 1 2 3 4 5 6 7 8 9 10 11 12 13 14 15 16 17 18 19 20 21 22 23 24 25
000
FTUS41 KPHI 222000 AAA
TAFPHL
TAF AMD
KPHL 222022Z 2220/2324 06007KT P6SM SCT020 OVC040
      TEMPO 2221/2223 BKN020 OVC035
     FM222300 06005KT P6SM -RA BKN020 OVC035
     FM230200 05005KT 4SM -RA BR BKN006 OVC015
     FM230600 06005KT 2SM -RA BR OVC004
     FM231700 11005KT 5SM -DZ BR OVC006=

USA.gov is the U.S. government's official web portal to all federal, state and local government web resources and services.